Time;durP1;ratioP1;P1;durP2;ratioP2;P2;SDS_P1;SDS_P2;PMS_P1;PMS_P2;Temp;Humidity;BMP_temperature;BMP_pressure;BME280_temperature;BME280_humidity;BME280_pressure;Samples;Min_cycle;Max_cycle;Signal;HPM_P1;HPM_P2
2023/01/21 00:02:20;;;;;;;23.07;18.07;;;2.10;99.90;;;;;;4995657;28;20274;-52
2023/01/21 00:04:45;;;;;;;21.93;17.73;;;2.10;99.90;;;;;;4995515;28;20177;-51
2023/01/21 00:07:11;;;;;;;21.23;16.73;;;2.20;99.90;;;;;;4995332;28;20263;-55
2023/01/21 00:09:37;;;;;;;21.97;17.53;;;2.10;99.90;;;;;;4995581;28;20177;-52
2023/01/21 00:12:03;;;;;;;22.17;17.67;;;2.10;99.90;;;;;;4995182;28;20616;-53
2023/01/21 00:14:29;;;;;;;21.77;16.97;;;2.30;99.90;;;;;;4995295;28;20177;-54
2023/01/21 00:16:55;;;;;;;22.13;16.43;;;2.30;99.90;;;;;;4995181;28;20284;-55
2023/01/21 00:19:20;;;;;;;20.20;15.93;;;2.40;99.90;;;;;;4995477;28;20284;-51
2023/01/21 00:21:46;;;;;;;21.40;16.13;;;2.50;99.90;;;;;;4995338;28;20173;-53
2023/01/21 00:24:11;;;;;;;19.83;14.77;;;2.60;99.90;;;;;;4995391;28;20177;-52
2023/01/21 00:26:37;;;;;;;21.47;16.13;;;2.60;99.90;;;;;;4995150;28;20208;-55
2023/01/21 00:29:03;;;;;;;18.63;14.57;;;2.50;99.90;;;;;;4995288;28;20208;-53
2023/01/21 00:31:28;;;;;;;18.77;15.37;;;2.50;99.90;;;;;;4995196;28;20169;-55
2023/01/21 00:33:54;;;;;;;17.60;13.83;;;2.50;99.90;;;;;;4994957;28;20773;-52
2023/01/21 00:36:21;;;;;;;17.47;14.73;;;2.50;99.90;;;;;;4994877;28;20690;-54
2023/01/21 00:38:49;;;;;;;17.90;13.77;;;2.60;99.90;;;;;;4995135;28;20174;-55
2023/01/21 00:41:16;;;;;;;17.73;14.17;;;2.70;99.90;;;;;;4995112;28;20546;-55
2023/01/21 00:43:42;;;;;;;17.73;15.00;;;2.80;99.90;;;;;;4994766;28;20404;-55
2023/01/21 00:46:09;;;;;;;17.27;13.47;;;2.80;99.90;;;;;;4994394;28;20554;-55
2023/01/21 00:48:35;;;;;;;15.27;12.80;;;2.90;99.90;;;;;;4994846;28;20439;-54
2023/01/21 00:51:01;;;;;;;15.67;12.77;;;2.90;99.90;;;;;;4995120;28;20412;-50
2023/01/21 00:53:28;;;;;;;15.83;12.47;;;2.90;99.90;;;;;;4994789;28;20413;-55
2023/01/21 00:55:59;;;;;;;15.67;12.80;;;2.90;99.90;;;;;;4994270;28;20255;-55
2023/01/21 00:58:24;;;;;;;15.03;12.30;;;2.80;99.90;;;;;;4994972;28;20817;-54
2023/01/21 01:00:50;;;;;;;15.93;12.63;;;2.80;99.90;;;;;;4993304;28;20421;-52
2023/01/21 01:03:15;;;;;;;15.80;12.23;;;2.70;99.90;;;;;;4994829;28;20245;-53
2023/01/21 01:05:41;;;;;;;15.40;12.40;;;2.80;99.90;;;;;;4993784;28;20216;-55
2023/01/21 01:08:06;;;;;;;15.43;12.13;;;2.90;99.90;;;;;;4993341;28;20169;-54
2023/01/21 01:10:32;;;;;;;12.97;11.43;;;2.90;99.90;;;;;;4994359;28;20257;-55
2023/01/21 01:13:00;;;;;;;14.50;11.73;;;3.00;99.90;;;;;;4994627;28;20713;-53
2023/01/21 01:15:25;;;;;;;15.77;12.50;;;2.90;99.90;;;;;;4993918;28;20180;-53
2023/01/21 01:17:51;;;;;;;13.77;12.23;;;2.80;99.90;;;;;;4994372;28;20409;-53
2023/01/21 01:20:16;;;;;;;14.40;12.27;;;2.60;99.90;;;;;;4994293;28;20169;-55
2023/01/21 01:22:42;;;;;;;15.10;12.47;;;2.70;99.90;;;;;;4994333;28;20173;-56
2023/01/21 01:25:08;;;;;;;14.13;11.30;;;2.80;99.90;;;;;;4993953;28;20204;-52
2023/01/21 01:27:33;;;;;;;15.23;12.10;;;2.80;99.90;;;;;;4993953;28;20173;-55
2023/01/21 01:29:59;;;;;;;14.77;12.13;;;2.80;99.90;;;;;;4994128;28;20181;-52
2023/01/21 01:32:24;;;;;;;12.93;10.93;;;2.80;99.90;;;;;;4994200;28;20173;-54
2023/01/21 01:34:50;;;;;;;14.17;11.67;;;2.80;99.90;;;;;;4993497;28;20205;-53
2023/01/21 01:37:15;;;;;;;15.17;11.77;;;2.80;99.90;;;;;;4993843;28;20208;-54
2023/01/21 01:39:41;;;;;;;13.13;10.93;;;2.70;99.90;;;;;;4993985;28;20173;-57
2023/01/21 01:42:13;;;;;;;14.73;11.43;;;2.70;99.90;;;;;;4993699;28;20165;-53
2023/01/21 01:44:54;;;;;;;13.80;11.17;;;2.70;99.90;;;;;;4993543;28;20219;-55
2023/01/21 01:47:22;;;;;;;12.37;10.57;;;2.80;99.90;;;;;;4993708;28;20432;-57
2023/01/21 01:49:47;;;;;;;13.00;11.13;;;2.90;99.90;;;;;;4993789;28;20437;-57
2023/01/21 01:52:15;;;;;;;12.53;10.40;;;2.70;99.90;;;;;;4993886;28;21006;-52
2023/01/21 01:54:47;;;;;;;13.97;10.90;;;2.60;99.90;;;;;;4993165;28;20252;-54
2023/01/21 01:57:17;;;;;;;14.03;10.90;;;2.60;99.90;;;;;;4993539;28;20491;-55
2023/01/21 01:59:43;;;;;;;12.33;10.37;;;2.50;99.90;;;;;;4993668;28;20440;-56
2023/01/21 02:02:12;;;;;;;14.60;11.07;;;2.60;99.90;;;;;;4993596;28;20405;-55
2023/01/21 02:04:55;;;;;;;13.03;10.67;;;2.70;99.90;;;;;;4993137;28;20880;-55
2023/01/21 02:07:23;;;;;;;12.83;10.83;;;2.80;99.90;;;;;;4993484;28;20432;-55
2023/01/21 02:09:50;;;;;;;12.90;10.90;;;2.90;99.90;;;;;;4993380;28;20946;-54
2023/01/21 02:12:16;;;;;;;11.87;10.27;;;2.90;99.90;;;;;;4993495;28;20415;-55
2023/01/21 02:14:43;;;;;;;12.83;10.43;;;2.90;99.90;;;;;;4992518;28;20419;-53
2023/01/21 02:17:39;;;;;;;11.47;9.33;;;2.90;99.90;;;;;;4993300;28;20443;-52
2023/01/21 02:20:21;;;;;;;11.47;9.97;;;2.90;99.90;;;;;;4993173;28;20781;-54
2023/01/21 02:23:16;;;;;;;12.43;10.20;;;2.70;99.90;;;;;;4993220;28;20415;-55
2023/01/21 02:26:37;;;;;;;12.60;10.43;;;2.60;99.90;;;;;;4951595;29;21029;-52
2023/01/21 02:29:34;;;;;;;13.07;10.07;;;2.80;99.90;;;;;;4894933;29;20431;-55
2023/01/21 02:32:26;;;;;;;13.13;9.53;;;2.90;99.90;;;;;;4895195;29;20968;-53
2023/01/21 02:35:11;;;;;;;12.50;8.83;;;2.90;99.90;;;;;;4894730;29;20417;-54
2023/01/21 02:37:56;;;;;;;12.17;8.97;;;2.90;99.90;;;;;;4894017;29;20440;-52
2023/01/21 02:40:36;;;;;;;13.50;10.20;;;2.80;99.90;;;;;;4894421;29;20926;-52
2023/01/21 02:43:45;;;;;;;10.30;9.07;;;2.70;99.90;;;;;;4894835;29;20421;-53
2023/01/21 02:46:21;;;;;;;11.47;9.70;;;2.60;99.90;;;;;;4875784;29;20465;-53
2023/01/21 02:48:55;;;;;;;11.47;8.83;;;2.60;99.90;;;;;;4875983;29;20919;-54
2023/01/21 02:51:23;;;;;;;12.03;9.23;;;2.40;99.90;;;;;;4876018;29;20796;-51
2023/01/21 02:53:48;;;;;;;11.90;9.63;;;2.30;99.90;;;;;;4875670;29;20417;-55
2023/01/21 02:56:20;;;;;;;12.23;9.60;;;2.20;99.90;;;;;;4875607;29;20514;-54
2023/01/21 02:58:53;;;;;;;12.17;9.50;;;2.20;99.90;;;;;;4876097;29;20177;-53
2023/01/21 03:01:25;;;;;;;12.17;8.80;;;2.20;99.90;;;;;;4891412;29;20521;-51
2023/01/21 03:04:31;;;;;;;11.90;9.60;;;2.20;99.90;;;;;;4954183;28;20471;-55
2023/01/21 03:07:19;;;;;;;11.97;9.33;;;2.20;99.90;;;;;;4931876;29;20852;-55
2023/01/21 03:09:45;;;;;;;11.83;8.60;;;2.30;99.90;;;;;;4932222;29;20992;-53
2023/01/21 03:12:34;;;;;;;12.10;9.30;;;2.30;99.90;;;;;;4932262;29;20519;-56
2023/01/21 03:18:33;;;;;;;11.70;9.13;;;2.20;99.90;;;;;;4931397;29;20478;-52
2023/01/21 03:21:06;;;;;;;11.20;9.07;;;2.20;99.90;;;;;;4966351;28;20425;-53
2023/01/21 03:23:37;;;;;;;12.67;8.57;;;2.20;99.90;;;;;;4970091;28;20802;-51
2023/01/21 03:26:06;;;;;;;10.50;8.43;;;2.20;99.90;;;;;;4969468;28;20465;-53
2023/01/21 03:28:35;;;;;;;10.77;8.67;;;2.30;99.90;;;;;;4970339;28;20409;-56
2023/01/21 03:31:24;;;;;;;10.87;8.87;;;2.30;99.90;;;;;;4970535;28;20855;-55
2023/01/21 03:33:53;;;;;;;12.23;8.20;;;2.50;99.90;;;;;;4970180;28;20428;-52
2023/01/21 03:36:47;;;;;;;9.83;8.13;;;2.50;99.90;;;;;;4970075;28;20877;-55
2023/01/21 03:39:39;;;;;;;9.37;7.77;;;2.50;99.90;;;;;;4970238;28;20424;-55
2023/01/21 03:42:06;;;;;;;11.03;9.00;;;2.40;99.90;;;;;;4953666;28;20458;-55
2023/01/21 03:44:32;;;;;;;11.63;9.17;;;2.40;99.90;;;;;;4991728;28;20925;-53
2023/01/21 03:47:05;;;;;;;10.83;8.20;;;2.30;99.90;;;;;;4991861;28;20451;-53
2023/01/21 03:49:39;;;;;;;9.17;7.53;;;2.20;99.90;;;;;;4991875;28;20447;-53
2023/01/21 03:52:05;;;;;;;11.33;8.60;;;2.20;99.90;;;;;;4992097;28;20413;-54
2023/01/21 03:54:31;;;;;;;10.40;8.17;;;2.30;99.90;;;;;;4991492;28;20412;-52
2023/01/21 03:56:57;;;;;;;10.90;8.07;;;2.30;99.90;;;;;;4991856;28;20436;-52
2023/01/21 03:59:23;;;;;;;10.70;8.33;;;2.40;99.90;;;;;;4992048;28;20421;-54
2023/01/21 04:01:49;;;;;;;11.37;8.57;;;2.40;99.90;;;;;;4991712;28;20176;-52
2023/01/21 04:04:14;;;;;;;10.37;8.33;;;2.40;99.90;;;;;;4991591;28;20524;-53
2023/01/21 04:06:40;;;;;;;10.43;8.33;;;2.50;99.90;;;;;;4991585;28;20218;-53
2023/01/21 04:09:06;;;;;;;9.53;7.63;;;2.50;99.90;;;;;;4991790;28;20263;-53
2023/01/21 04:11:32;;;;;;;10.17;8.07;;;2.40;99.90;;;;;;4991604;28;20187;-53
2023/01/21 04:13:58;;;;;;;10.47;8.17;;;2.40;99.90;;;;;;4991285;28;20503;-51
2023/01/21 04:16:24;;;;;;;11.13;7.83;;;2.40;99.90;;;;;;4991442;28;21004;-55
2023/01/21 04:18:50;;;;;;;9.10;7.63;;;2.50;99.90;;;;;;4991816;28;20213;-55
2023/01/21 04:21:15;;;;;;;10.27;7.83;;;2.60;99.90;;;;;;4991571;28;20180;-55
2023/01/21 04:23:41;;;;;;;9.13;7.50;;;2.70;99.90;;;;;;4991274;28;20289;-55
2023/01/21 04:26:07;;;;;;;9.17;7.97;;;2.80;99.90;;;;;;4991580;28;20216;-53
2023/01/21 04:28:32;;;;;;;9.63;7.33;;;2.80;99.90;;;;;;4991524;28;20290;-53
2023/01/21 04:30:58;;;;;;;8.90;7.77;;;2.80;99.90;;;;;;4991477;28;20562;-53
2023/01/21 04:33:23;;;;;;;8.77;7.50;;;2.70;99.90;;;;;;4991406;28;20220;-52
2023/01/21 04:35:49;;;;;;;9.80;7.50;;;2.70;99.90;;;;;;4989722;28;20209;-53
2023/01/21 04:38:14;;;;;;;8.97;7.00;;;2.60;99.90;;;;;;4993693;28;20177;-53
2023/01/21 04:40:40;;;;;;;10.07;7.10;;;2.40;99.90;;;;;;4995251;28;20578;-55
2023/01/21 04:43:06;;;;;;;8.90;6.90;;;2.30;99.90;;;;;;4994964;28;20710;-55
2023/01/21 04:45:32;;;;;;;10.67;7.57;;;2.40;99.90;;;;;;4994632;28;20267;-53
2023/01/21 04:47:57;;;;;;;9.70;7.50;;;2.40;99.90;;;;;;4994795;28;20177;-54
2023/01/21 04:50:23;;;;;;;9.13;6.90;;;2.50;99.90;;;;;;4993814;28;20204;-53
2023/01/21 04:52:49;;;;;;;8.47;7.07;;;2.50;99.90;;;;;;4995088;28;20180;-56
2023/01/21 04:55:14;;;;;;;11.47;6.97;;;2.50;99.90;;;;;;4994581;28;20201;-56
2023/01/21 04:57:40;;;;;;;8.83;5.83;;;2.40;99.90;;;;;;4994902;28;20256;-54
2023/01/21 05:00:07;;;;;;;8.97;6.53;;;2.40;99.90;;;;;;4994717;28;20177;-51
2023/01/21 05:02:33;;;;;;;7.93;5.90;;;2.40;99.90;;;;;;4992800;28;20193;-53
2023/01/21 05:04:59;;;;;;;6.87;5.60;;;2.40;99.90;;;;;;4994209;28;20408;-51
2023/01/21 05:07:24;;;;;;;8.30;6.10;;;2.50;99.90;;;;;;4993334;28;20494;-52
2023/01/21 05:09:50;;;;;;;6.40;5.47;;;2.50;99.90;;;;;;4994863;28;20176;-54
2023/01/21 05:12:16;;;;;;;10.07;6.53;;;2.50;99.90;;;;;;4994628;28;20174;-54
2023/01/21 05:14:41;;;;;;;8.17;6.07;;;2.60;99.90;;;;;;4994070;28;20177;-52
2023/01/21 05:17:07;;;;;;;7.10;5.50;;;2.60;99.90;;;;;;4994318;28;20199;-54
2023/01/21 05:19:32;;;;;;;8.27;5.60;;;2.60;99.90;;;;;;4994432;28;20193;-54
2023/01/21 05:21:58;;;;;;;7.17;5.57;;;2.50;99.90;;;;;;4994488;28;20173;-52
2023/01/21 05:24:23;;;;;;;9.33;6.00;;;2.50;99.90;;;;;;4994053;28;20260;-55
2023/01/21 05:26:49;;;;;;;7.23;5.27;;;2.50;99.90;;;;;;4994028;28;20630;-53
2023/01/21 05:29:15;;;;;;;7.70;5.40;;;2.50;99.90;;;;;;4994290;28;20214;-53
2023/01/21 05:31:42;;;;;;;6.80;4.97;;;2.40;99.90;;;;;;4994018;28;20596;-53
2023/01/21 05:34:08;;;;;;;8.10;5.80;;;2.20;99.90;;;;;;4994097;28;20424;-54
2023/01/21 05:36:34;;;;;;;8.57;5.77;;;2.30;99.90;;;;;;4994958;28;20463;-53
2023/01/21 05:39:00;;;;;;;9.00;5.80;;;2.30;99.90;;;;;;4994077;28;20424;-54
2023/01/21 05:41:26;;;;;;;7.70;5.50;;;2.30;99.90;;;;;;4994009;28;20213;-52
2023/01/21 05:43:51;;;;;;;5.67;4.83;;;2.30;99.90;;;;;;4993726;28;20517;-55
2023/01/21 05:46:17;;;;;;;7.57;5.50;;;2.30;99.90;;;;;;4993499;28;20279;-54
2023/01/21 05:48:42;;;;;;;6.57;5.53;;;2.40;99.90;;;;;;4993223;28;20178;-54
2023/01/21 05:51:08;;;;;;;8.30;5.13;;;2.40;99.90;;;;;;4993921;28;20205;-57
2023/01/21 05:53:34;;;;;;;8.97;6.03;;;2.40;99.90;;;;;;4993479;28;20176;-53
2023/01/21 05:55:59;;;;;;;10.13;6.33;;;2.40;99.90;;;;;;4993785;28;20208;-54
2023/01/21 05:58:25;;;;;;;8.47;6.30;;;2.40;99.90;;;;;;4993533;28;20223;-57
2023/01/21 06:00:51;;;;;;;8.33;6.23;;;2.40;99.90;;;;;;4993708;28;20204;-57
2023/01/21 06:03:17;;;;;;;8.17;6.17;;;2.30;99.90;;;;;;4993618;28;20196;-55
2023/01/21 06:05:44;;;;;;;9.83;6.70;;;2.30;99.90;;;;;;4993463;28;20216;-55
2023/01/21 06:08:10;;;;;;;8.57;6.33;;;2.20;99.90;;;;;;4993482;28;20413;-54
2023/01/21 06:10:36;;;;;;;7.53;6.20;;;2.20;99.90;;;;;;4993498;28;20408;-56
2023/01/21 06:13:01;;;;;;;8.50;6.77;;;2.10;99.90;;;;;;4993385;28;20501;-53
2023/01/21 06:15:27;;;;;;;8.90;7.03;;;2.00;99.90;;;;;;4993010;28;20221;-53
2023/01/21 06:17:53;;;;;;;9.87;6.93;;;1.90;99.90;;;;;;4993222;28;20217;-52
2023/01/21 06:20:19;;;;;;;10.73;7.47;;;1.80;99.90;;;;;;4993206;28;20177;-57
2023/01/21 06:22:44;;;;;;;9.93;7.27;;;1.80;99.90;;;;;;4993460;28;20177;-57
2023/01/21 06:25:10;;;;;;;11.13;7.57;;;1.80;99.90;;;;;;4992655;28;20189;-55
2023/01/21 06:27:37;;;;;;;11.03;7.77;;;1.70;99.90;;;;;;4991701;28;20220;-55
2023/01/21 06:30:07;;;;;;;10.37;6.90;;;1.60;99.90;;;;;;4992900;28;20423;-53
2023/01/21 06:32:35;;;;;;;10.40;8.10;;;1.60;99.90;;;;;;4993020;28;20785;-55
2023/01/21 06:35:01;;;;;;;10.43;7.70;;;1.60;99.90;;;;;;4992690;28;20411;-55
2023/01/21 06:37:26;;;;;;;10.80;7.30;;;1.60;99.90;;;;;;4992847;28;20527;-54
2023/01/21 06:39:52;;;;;;;9.27;7.50;;;1.70;99.90;;;;;;4992989;28;20181;-55
2023/01/21 06:42:18;;;;;;;8.37;7.47;;;1.70;99.90;;;;;;4992880;28;20189;-56
2023/01/21 06:44:44;;;;;;;10.63;6.93;;;1.70;99.90;;;;;;4992496;28;20269;-56
2023/01/21 06:47:10;;;;;;;10.10;7.37;;;1.60;99.90;;;;;;4992649;28;20267;-56
2023/01/21 06:49:35;;;;;;;9.43;7.23;;;1.60;99.90;;;;;;4992910;28;20409;-55
2023/01/21 06:52:01;;;;;;;8.80;6.90;;;1.70;99.90;;;;;;4992696;28;20173;-56
2023/01/21 06:54:27;;;;;;;10.33;7.70;;;1.80;99.90;;;;;;4992532;28;20248;-55
2023/01/21 06:56:53;;;;;;;9.50;7.33;;;1.90;99.90;;;;;;4992308;28;20200;-55
2023/01/21 06:59:18;;;;;;;9.07;6.87;;;1.90;99.90;;;;;;4992718;28;20212;-55
2023/01/21 07:01:44;;;;;;;8.77;7.00;;;1.90;99.90;;;;;;4992361;28;20177;-52
2023/01/21 07:04:09;;;;;;;9.80;7.17;;;1.90;99.90;;;;;;4992361;28;20165;-55
2023/01/21 07:06:35;;;;;;;10.97;7.30;;;1.90;99.90;;;;;;4992136;28;20698;-57
2023/01/21 07:09:02;;;;;;;9.57;6.77;;;1.90;99.90;;;;;;4992483;28;20184;-57
2023/01/21 07:11:28;;;;;;;10.00;7.83;;;1.90;99.90;;;;;;4992251;28;20498;-55
2023/01/21 07:13:54;;;;;;;11.80;7.40;;;2.00;99.90;;;;;;4992049;28;20822;-56
2023/01/21 07:16:19;;;;;;;8.70;6.57;;;2.10;99.90;;;;;;4992245;28;20339;-53
2023/01/21 07:18:45;;;;;;;9.03;6.53;;;2.00;99.90;;;;;;4992319;28;20181;-55
2023/01/21 07:21:10;;;;;;;9.53;7.17;;;2.10;99.90;;;;;;4992271;28;20647;-52
2023/01/21 07:23:36;;;;;;;8.90;6.40;;;2.20;99.90;;;;;;4991880;28;20649;-58
2023/01/21 07:26:01;;;;;;;8.63;6.33;;;2.30;99.90;;;;;;4991873;28;20216;-53
2023/01/21 07:28:27;;;;;;;7.83;6.20;;;2.40;99.90;;;;;;4992138;28;20251;-55
2023/01/21 07:30:52;;;;;;;7.50;6.00;;;2.40;99.90;;;;;;4990977;28;20177;-54
2023/01/21 07:33:18;;;;;;;7.10;5.40;;;2.40;99.90;;;;;;4991884;28;20592;-52
2023/01/21 07:35:43;;;;;;;8.53;5.63;;;2.40;99.90;;;;;;4991825;28;20217;-53
2023/01/21 07:38:09;;;;;;;7.40;5.27;;;2.30;99.90;;;;;;4991840;28;20587;-55
2023/01/21 07:40:34;;;;;;;8.67;6.30;;;2.20;99.90;;;;;;4992105;28;20263;-52
2023/01/21 07:43:00;;;;;;;7.33;5.13;;;2.20;99.90;;;;;;4991809;28;20206;-54
2023/01/21 07:45:26;;;;;;;7.60;5.70;;;2.20;99.90;;;;;;4991595;28;20267;-56
2023/01/21 07:47:51;;;;;;;6.80;5.47;;;2.30;99.90;;;;;;4991911;28;20181;-55
2023/01/21 07:50:17;;;;;;;6.63;5.40;;;2.40;99.90;;;;;;4991803;28;20538;-54
2023/01/21 07:52:43;;;;;;;7.37;5.50;;;2.40;99.90;;;;;;4991947;28;20170;-54
2023/01/21 07:55:09;;;;;;;7.70;5.33;;;2.30;99.90;;;;;;4991208;28;20203;-56
2023/01/21 07:57:34;;;;;;;9.20;5.40;;;2.30;99.90;;;;;;4991700;28;20650;-57
2023/01/21 08:00:00;;;;;;;7.53;5.50;;;2.30;99.90;;;;;;4991595;28;20411;-55
2023/01/21 08:02:26;;;;;;;7.87;5.20;;;2.30;99.90;;;;;;4991812;28;20795;-53
2023/01/21 08:04:51;;;;;;;6.50;5.07;;;2.30;99.90;;;;;;4991311;28;20189;-55
2023/01/21 08:07:17;;;;;;;6.83;5.17;;;2.20;99.90;;;;;;4991483;28;20643;-55
2023/01/21 08:09:42;;;;;;;6.63;5.40;;;2.20;99.90;;;;;;4991577;28;20643;-55
2023/01/21 08:12:09;;;;;;;6.50;5.20;;;2.40;99.90;;;;;;4992317;28;20260;-55
2023/01/21 08:14:34;;;;;;;7.00;4.97;;;2.40;99.90;;;;;;4995188;28;20196;-54
2023/01/21 08:17:00;;;;;;;7.20;5.07;;;2.40;99.90;;;;;;4995217;28;20456;-55
2023/01/21 08:19:26;;;;;;;7.07;5.13;;;2.30;99.90;;;;;;4995412;28;20170;-54
2023/01/21 08:21:52;;;;;;;6.80;5.20;;;2.20;99.90;;;;;;4995258;28;20182;-57
2023/01/21 08:24:17;;;;;;;5.47;4.60;;;2.20;99.90;;;;;;4995024;28;20177;-54
2023/01/21 08:26:43;;;;;;;7.20;5.20;;;2.20;99.90;;;;;;4994646;28;20208;-55
2023/01/21 08:29:09;;;;;;;6.37;5.37;;;2.20;99.90;;;;;;4995097;28;20208;-56
2023/01/21 08:31:34;;;;;;;7.17;5.60;;;2.30;99.90;;;;;;4994406;28;20173;-58
2023/01/21 08:34:00;;;;;;;7.47;5.60;;;2.30;99.90;;;;;;4994751;28;20212;-55
2023/01/21 08:36:26;;;;;;;7.87;5.60;;;2.40;99.90;;;;;;4994640;28;20220;-56
2023/01/21 08:38:57;;;;;;;7.60;5.47;;;2.50;99.90;;;;;;4992791;28;20185;-52
2023/01/21 08:41:23;;;;;;;7.90;6.13;;;2.60;99.90;;;;;;4995133;28;20424;-50
2023/01/21 08:43:49;;;;;;;7.60;5.63;;;2.60;99.90;;;;;;4994087;28;20419;-57
2023/01/21 08:46:14;;;;;;;7.17;5.67;;;2.60;99.90;;;;;;4994727;28;20467;-55
2023/01/21 08:48:40;;;;;;;8.23;5.97;;;2.70;99.90;;;;;;4994967;28;20200;-55
2023/01/21 08:51:06;;;;;;;7.50;5.73;;;2.70;99.90;;;;;;4995033;28;20284;-53
2023/01/21 08:53:31;;;;;;;7.90;5.00;;;2.80;99.90;;;;;;4994555;28;20185;-57
2023/01/21 08:55:59;;;;;;;5.70;4.70;;;2.80;99.90;;;;;;4994792;28;20225;-55
2023/01/21 08:58:25;;;;;;;5.97;5.20;;;2.80;99.90;;;;;;4988839;28;20170;-54
2023/01/21 09:00:50;;;;;;;8.23;5.40;;;2.70;99.90;;;;;;4984038;28;20189;-52
2023/01/21 09:03:18;;;;;;;6.63;5.17;;;2.80;99.90;;;;;;4980165;28;20575;-53
2023/01/21 09:05:44;;;;;;;6.67;5.10;;;2.80;99.90;;;;;;4974818;28;20233;-53
2023/01/21 09:08:10;;;;;;;6.60;5.10;;;2.80;99.90;;;;;;4975039;28;20492;-52
2023/01/21 09:13:20;;;;;;;6.77;4.87;;;2.80;99.90;;;;;;4975244;28;20184;-53
2023/01/21 09:15:46;;;;;;;6.70;5.07;;;2.70;99.90;;;;;;4974770;28;20209;-52
2023/01/21 09:18:11;;;;;;;6.70;4.90;;;2.80;99.90;;;;;;4973574;28;20555;-55
2023/01/21 09:20:38;;;;;;;6.57;4.53;;;2.80;99.90;;;;;;4974709;28;20651;-51
2023/01/21 09:23:22;;;;;;;6.97;4.70;;;2.80;99.90;;;;;;4974278;28;20277;-51
2023/01/21 09:25:49;;;;;;;6.43;4.63;;;2.90;99.90;;;;;;4973914;28;20713;-50
2023/01/21 09:28:15;;;;;;;5.23;4.20;;;3.10;99.90;;;;;;4989637;28;20180;-52
2023/01/21 09:30:40;;;;;;;6.67;5.13;;;3.10;99.90;;;;;;5013610;28;20408;-55
2023/01/21 09:33:06;;;;;;;6.47;5.00;;;3.10;99.90;;;;;;5013601;28;20188;-53
2023/01/21 09:35:31;;;;;;;6.07;4.97;;;3.20;99.90;;;;;;5013442;28;20200;-52
2023/01/21 09:37:57;;;;;;;5.90;5.00;;;3.40;99.90;;;;;;5013598;28;20179;-55
2023/01/21 09:40:23;;;;;;;8.10;5.80;;;3.50;99.90;;;;;;5013436;28;20185;-54
2023/01/21 09:42:49;;;;;;;6.33;5.37;;;3.40;99.90;;;;;;4996147;28;20173;-50
2023/01/21 09:45:16;;;;;;;7.47;5.93;;;3.40;99.90;;;;;;4982489;28;20694;-47
2023/01/21 09:47:43;;;;;;;7.03;5.67;;;3.40;99.90;;;;;;4986890;28;20200;-51
2023/01/21 09:50:19;;;;;;;8.17;6.20;;;3.60;99.90;;;;;;4993982;28;20232;-51
2023/01/21 09:52:53;;;;;;;8.43;6.60;;;3.40;99.90;;;;;;4993756;28;20503;-49
2023/01/21 09:55:40;;;;;;;8.47;6.40;;;3.40;99.90;;;;;;4992400;28;20173;-49
2023/01/21 09:58:24;;;;;;;9.30;7.10;;;3.50;99.90;;;;;;4989439;28;20524;-52
2023/01/21 10:01:12;;;;;;;9.17;6.27;;;3.50;99.90;;;;;;4992953;28;20204;-53
2023/01/21 10:03:53;;;;;;;8.17;6.37;;;3.50;99.90;;;;;;4993873;28;20200;-49
2023/01/21 10:06:31;;;;;;;7.80;6.47;;;3.40;99.90;;;;;;5006488;28;20235;-49
2023/01/21 10:09:05;;;;;;;9.63;7.50;;;3.60;99.90;;;;;;5011729;28;20347;-52
2023/01/21 10:12:06;;;;;;;7.80;6.40;;;3.60;99.90;;;;;;5012777;28;20172;-50
2023/01/21 10:14:44;;;;;;;9.27;5.80;;;3.50;99.90;;;;;;4970948;28;20277;-52
2023/01/21 10:17:28;;;;;;;8.00;6.37;;;3.60;99.90;;;;;;4970847;28;20241;-53
2023/01/21 10:20:14;;;;;;;9.23;5.93;;;3.70;99.90;;;;;;4971316;28;20182;-53
2023/01/21 10:22:46;;;;;;;8.03;6.20;;;3.70;99.90;;;;;;4971196;28;20550;-55
2023/01/21 10:25:39;;;;;;;10.10;6.80;;;3.70;99.90;;;;;;4970904;28;20185;-53
2023/01/21 10:28:21;;;;;;;80.13;49.70;;;3.70;99.90;;;;;;4970732;28;20210;-55
2023/01/21 10:30:53;;;;;;;7.27;6.07;;;3.80;99.90;;;;;;4971109;28;20209;-51
2023/01/21 10:33:24;;;;;;;7.10;6.03;;;3.90;99.90;;;;;;4970406;28;20178;-53
2023/01/21 10:36:02;;;;;;;5.50;4.60;;;3.80;99.90;;;;;;4970210;28;20559;-52
2023/01/21 10:38:33;;;;;;;7.03;5.70;;;3.90;99.90;;;;;;4971047;28;20182;-50
2023/01/21 10:41:29;;;;;;;7.10;5.70;;;3.80;99.90;;;;;;4971057;28;20197;-55
2023/01/21 10:44:28;;;;;;;7.47;5.67;;;3.70;99.90;;;;;;4970533;28;20189;-56
2023/01/21 10:47:18;;;;;;;6.20;5.20;;;3.70;99.90;;;;;;4952669;28;20250;-55
2023/01/21 10:50:13;;;;;;;7.13;5.30;;;3.70;99.90;;;;;;4984769;28;20239;-53
2023/01/21 10:52:56;;;;;;;8.57;6.53;;;3.70;99.90;;;;;;5012167;28;20602;-54
2023/01/21 10:55:52;;;;;;;7.03;5.30;;;3.80;99.90;;;;;;5011954;28;20554;-54
2023/01/21 10:58:48;;;;;;;7.63;5.87;;;3.90;99.90;;;;;;5012372;28;20172;-49
2023/01/21 11:01:29;;;;;;;6.80;5.27;;;3.80;99.90;;;;;;5008609;28;20181;-53
2023/01/21 11:03:58;;;;;;;7.50;5.40;;;3.80;99.90;;;;;;5011622;28;20179;-53
2023/01/21 11:06:24;;;;;;;6.33;5.17;;;3.80;99.90;;;;;;5011719;28;20216;-54
2023/01/21 11:08:55;;;;;;;6.80;5.50;;;3.80;99.90;;;;;;5012048;28;20180;-50
2023/01/21 11:11:31;;;;;;;6.93;5.60;;;3.70;99.90;;;;;;5011932;28;20685;-49
2023/01/21 11:13:57;;;;;;;7.00;5.20;;;3.70;99.90;;;;;;5011557;28;20246;-53
2023/01/21 11:16:49;;;;;;;6.30;4.90;;;3.90;99.90;;;;;;5011527;28;20203;-53
2023/01/21 11:19:24;;;;;;;7.33;4.80;;;3.90;99.90;;;;;;5009841;28;20220;-56
2023/01/21 11:22:04;;;;;;;6.33;4.83;;;3.80;99.90;;;;;;5011689;28;20169;-53
2023/01/21 11:24:51;;;;;;;5.90;4.70;;;3.90;99.90;;;;;;5011490;28;20684;-53
2023/01/21 11:27:19;;;;;;;6.60;4.97;;;3.80;99.90;;;;;;5011480;28;20527;-51
2023/01/21 11:29:47;;;;;;;6.50;4.60;;;3.80;99.90;;;;;;5011597;28;20164;-57
2023/01/21 11:32:20;;;;;;;7.00;4.97;;;3.70;99.90;;;;;;5011435;28;20175;-53
2023/01/21 11:34:48;;;;;;;6.77;5.30;;;3.70;99.90;;;;;;5011253;28;20199;-55
2023/01/21 11:37:27;;;;;;;5.53;4.80;;;3.70;99.90;;;;;;5011091;28;20208;-54
2023/01/21 11:39:59;;;;;;;5.53;4.90;;;3.60;99.90;;;;;;5011734;28;20172;-54
2023/01/21 11:42:25;;;;;;;6.17;4.77;;;3.40;99.90;;;;;;5011447;28;20649;-55
2023/01/21 11:44:55;;;;;;;5.90;5.00;;;3.40;99.90;;;;;;5011319;28;20179;-55
2023/01/21 11:47:33;;;;;;;6.10;4.73;;;3.40;99.90;;;;;;5012389;28;20208;-55
2023/01/21 11:50:08;;;;;;;5.60;4.80;;;3.40;99.90;;;;;;5015614;28;20186;-56
2023/01/21 11:52:34;;;;;;;6.27;4.67;;;3.40;99.90;;;;;;5015657;28;20514;-53
2023/01/21 11:55:01;;;;;;;5.83;5.10;;;3.40;99.90;;;;;;5015361;28;20187;-54
2023/01/21 11:57:31;;;;;;;5.93;4.70;;;3.50;99.90;;;;;;5015417;28;20250;-53
2023/01/21 12:00:06;;;;;;;5.93;4.40;;;3.60;99.90;;;;;;5015734;28;20506;-56
2023/01/21 12:02:35;;;;;;;4.43;4.03;;;3.60;99.90;;;;;;5015362;28;20176;-54
2023/01/21 12:05:12;;;;;;;4.80;3.67;;;3.60;99.90;;;;;;5015062;28;20169;-54
2023/01/21 12:07:40;;;;;;;4.90;3.80;;;3.80;99.90;;;;;;5015567;28;20589;-56
2023/01/21 12:10:26;;;;;;;4.40;3.70;;;3.90;99.90;;;;;;5015465;28;20172;-55
2023/01/21 12:12:59;;;;;;;4.77;4.00;;;3.90;99.90;;;;;;5015102;28;20193;-57
2023/01/21 12:15:57;;;;;;;4.93;4.07;;;3.90;99.90;;;;;;5015001;28;20658;-52
2023/01/21 12:18:44;;;;;;;4.30;3.70;;;4.10;99.90;;;;;;5012106;28;20192;-55
2023/01/21 12:21:28;;;;;;;4.80;4.00;;;4.10;99.90;;;;;;5015257;28;20180;-49
2023/01/21 12:24:25;;;;;;;5.00;3.63;;;4.20;99.90;;;;;;5014782;28;20187;-53
2023/01/21 12:27:00;;;;;;;4.03;3.60;;;4.20;99.90;;;;;;5015035;28;20212;-56
2023/01/21 12:29:54;;;;;;;4.20;3.80;;;4.30;99.90;;;;;;5014965;28;20521;-54
2023/01/21 12:32:25;;;;;;;4.13;3.73;;;4.30;99.90;;;;;;5014914;28;20592;-52
2023/01/21 12:34:56;;;;;;;4.20;3.47;;;4.30;99.90;;;;;;5014518;28;20259;-57
2023/01/21 12:37:35;;;;;;;4.77;3.70;;;4.30;99.90;;;;;;5014791;28;20216;-55
2023/01/21 12:40:13;;;;;;;4.00;3.50;;;4.30;99.90;;;;;;5014817;28;20176;-54
2023/01/21 12:42:43;;;;;;;4.70;3.57;;;4.40;99.90;;;;;;5014889;28;20176;-55
2023/01/21 12:45:17;;;;;;;4.00;3.60;;;4.50;99.90;;;;;;5014322;28;20267;-50
2023/01/21 12:48:00;;;;;;;4.53;3.30;;;4.50;99.90;;;;;;5014582;28;20176;-50
2023/01/21 12:50:51;;;;;;;4.93;3.70;;;4.50;99.90;;;;;;5014563;28;20176;-52
2023/01/21 12:53:52;;;;;;;4.63;3.83;;;4.50;99.90;;;;;;5014539;28;20276;-51
2023/01/21 12:56:32;;;;;;;4.37;3.60;;;4.50;99.90;;;;;;5005906;28;20262;-52
2023/01/21 12:59:10;;;;;;;5.33;3.60;;;4.50;99.90;;;;;;5014318;28;20234;-53
2023/01/21 13:01:57;;;;;;;3.40;3.03;;;4.40;99.90;;;;;;5014237;28;20187;-52
2023/01/21 13:04:36;;;;;;;3.20;2.90;;;4.40;99.90;;;;;;5014152;28;20180;-56
2023/01/21 13:07:10;;;;;;;7.27;4.33;;;4.30;99.90;;;;;;5014110;28;20636;-51
2023/01/21 13:09:55;;;;;;;4.57;3.37;;;4.30;99.90;;;;;;5014369;28;20191;-54
2023/01/21 13:12:24;;;;;;;4.13;3.40;;;4.30;99.90;;;;;;5014217;28;20165;-53
2023/01/21 13:15:05;;;;;;;3.50;2.93;;;4.30;99.90;;;;;;5013968;28;20165;-53
2023/01/21 13:17:34;;;;;;;3.30;2.73;;;4.30;99.90;;;;;;4994974;28;20204;-53